sensor_id;sensor_type;location;lat;lon;timestamp;P1;durP1;ratioP1;P2;durP2;ratioP2
33505;SDS011;19843;51.040;13.782;2023-06-14T00:02:00;2.50;;;1.88;;
33505;SDS011;19843;51.040;13.782;2023-06-14T00:04:27;4.47;;;2.00;;
33505;SDS011;19843;51.040;13.782;2023-06-14T00:06:55;2.55;;;1.60;;
33505;SDS011;19843;51.040;13.782;2023-06-14T00:09:23;2.35;;;2.10;;
33505;SDS011;19843;51.040;13.782;2023-06-14T00:11:51;3.20;;;2.10;;
33505;SDS011;19843;51.040;13.782;2023-06-14T00:14:20;1.70;;;1.60;;
33505;SDS011;19843;51.040;13.782;2023-06-14T00:16:47;2.03;;;1.85;;
33505;SDS011;19843;51.040;13.782;2023-06-14T00:19:15;2.35;;;1.92;;
33505;SDS011;19843;51.040;13.782;2023-06-14T00:21:42;2.10;;;1.40;;
33505;SDS011;19843;51.040;13.782;2023-06-14T00:24:10;2.53;;;2.00;;
33505;SDS011;19843;51.040;13.782;2023-06-14T00:26:38;1.90;;;1.80;;
33505;SDS011;19843;51.040;13.782;2023-06-14T00:29:05;2.35;;;1.88;;
33505;SDS011;19843;51.040;13.782;2023-06-14T00:31:34;1.98;;;1.83;;
33505;SDS011;19843;51.040;13.782;2023-06-14T00:34:02;1.63;;;1.52;;
33505;SDS011;19843;51.040;13.782;2023-06-14T00:36:29;2.63;;;1.80;;
33505;SDS011;19843;51.040;13.782;2023-06-14T00:38:57;2.63;;;1.92;;
33505;SDS011;19843;51.040;13.782;2023-06-14T00:41:24;3.13;;;1.67;;
33505;SDS011;19843;51.040;13.782;2023-06-14T00:43:53;2.60;;;1.90;;
33505;SDS011;19843;51.040;13.782;2023-06-14T00:46:22;2.22;;;1.80;;
33505;SDS011;19843;51.040;13.782;2023-06-14T00:48:51;4.20;;;1.90;;
33505;SDS011;19843;51.040;13.782;2023-06-14T00:51:19;3.20;;;1.67;;
33505;SDS011;19843;51.040;13.782;2023-06-14T00:53:47;2.83;;;2.00;;
33505;SDS011;19843;51.040;13.782;2023-06-14T00:56:14;2.38;;;2.15;;
33505;SDS011;19843;51.040;13.782;2023-06-14T00:58:43;2.42;;;1.80;;
33505;SDS011;19843;51.040;13.782;2023-06-14T01:01:10;3.13;;;2.20;;
33505;SDS011;19843;51.040;13.782;2023-06-14T01:03:38;3.15;;;2.35;;
33505;SDS011;19843;51.040;13.782;2023-06-14T01:06:11;2.92;;;2.47;;
33505;SDS011;19843;51.040;13.782;2023-06-14T01:08:57;2.92;;;1.95;;
33505;SDS011;19843;51.040;13.782;2023-06-14T01:11:37;3.45;;;1.88;;
33505;SDS011;19843;51.040;13.782;2023-06-14T01:14:12;1.88;;;1.73;;
33505;SDS011;19843;51.040;13.782;2023-06-14T01:16:42;2.42;;;2.00;;
33505;SDS011;19843;51.040;13.782;2023-06-14T01:19:11;2.90;;;1.88;;
33505;SDS011;19843;51.040;13.782;2023-06-14T01:21:41;3.25;;;1.88;;
33505;SDS011;19843;51.040;13.782;2023-06-14T01:24:10;3.63;;;2.25;;
33505;SDS011;19843;51.040;13.782;2023-06-14T01:26:38;2.10;;;1.67;;
33505;SDS011;19843;51.040;13.782;2023-06-14T01:29:12;2.15;;;1.80;;
33505;SDS011;19843;51.040;13.782;2023-06-14T01:31:43;2.45;;;1.95;;
33505;SDS011;19843;51.040;13.782;2023-06-14T01:34:11;2.25;;;2.05;;
33505;SDS011;19843;51.040;13.782;2023-06-14T01:36:40;2.08;;;1.92;;
33505;SDS011;19843;51.040;13.782;2023-06-14T01:39:11;2.20;;;1.70;;
33505;SDS011;19843;51.040;13.782;2023-06-14T01:41:41;2.15;;;1.95;;
33505;SDS011;19843;51.040;13.782;2023-06-14T01:44:11;2.50;;;2.30;;
33505;SDS011;19843;51.040;13.782;2023-06-14T01:46:42;4.40;;;2.17;;
33505;SDS011;19843;51.040;13.782;2023-06-14T01:49:10;3.05;;;2.38;;
33505;SDS011;19843;51.040;13.782;2023-06-14T01:51:38;2.60;;;2.30;;
33505;SDS011;19843;51.040;13.782;2023-06-14T01:54:05;3.05;;;2.72;;
33505;SDS011;19843;51.040;13.782;2023-06-14T01:56:34;2.00;;;1.90;;
33505;SDS011;19843;51.040;13.782;2023-06-14T01:59:01;2.35;;;2.08;;
33505;SDS011;19843;51.040;13.782;2023-06-14T02:01:29;2.80;;;2.22;;
33505;SDS011;19843;51.040;13.782;2023-06-14T02:03:57;2.67;;;2.00;;
33505;SDS011;19843;51.040;13.782;2023-06-14T02:06:26;2.80;;;2.42;;
33505;SDS011;19843;51.040;13.782;2023-06-14T02:08:53;2.50;;;2.17;;
33505;SDS011;19843;51.040;13.782;2023-06-14T02:11:21;2.85;;;2.55;;
33505;SDS011;19843;51.040;13.782;2023-06-14T02:13:50;4.47;;;2.30;;
33505;SDS011;19843;51.040;13.782;2023-06-14T02:16:17;3.15;;;2.20;;
33505;SDS011;19843;51.040;13.782;2023-06-14T02:18:44;2.08;;;1.70;;
33505;SDS011;19843;51.040;13.782;2023-06-14T02:21:12;2.88;;;2.58;;
33505;SDS011;19843;51.040;13.782;2023-06-14T02:23:39;2.90;;;2.60;;
33505;SDS011;19843;51.040;13.782;2023-06-14T02:26:07;2.88;;;2.55;;
33505;SDS011;19843;51.040;13.782;2023-06-14T02:28:35;3.28;;;2.58;;
33505;SDS011;19843;51.040;13.782;2023-06-14T02:31:04;5.78;;;2.72;;
33505;SDS011;19843;51.040;13.782;2023-06-14T02:33:33;2.53;;;2.13;;
33505;SDS011;19843;51.040;13.782;2023-06-14T02:36:01;3.60;;;2.70;;
33505;SDS011;19843;51.040;13.782;2023-06-14T02:38:29;2.88;;;1.95;;
33505;SDS011;19843;51.040;13.782;2023-06-14T02:40:57;3.60;;;2.50;;
33505;SDS011;19843;51.040;13.782;2023-06-14T02:43:25;3.97;;;2.53;;
33505;SDS011;19843;51.040;13.782;2023-06-14T02:45:52;2.17;;;1.98;;
33505;SDS011;19843;51.040;13.782;2023-06-14T02:48:22;2.75;;;2.33;;
33505;SDS011;19843;51.040;13.782;2023-06-14T02:50:49;5.40;;;2.95;;
33505;SDS011;19843;51.040;13.782;2023-06-14T02:53:17;3.53;;;2.20;;
33505;SDS011;19843;51.040;13.782;2023-06-14T02:55:45;3.53;;;2.28;;
33505;SDS011;19843;51.040;13.782;2023-06-14T02:58:13;2.72;;;2.28;;
33505;SDS011;19843;51.040;13.782;2023-06-14T03:00:40;2.58;;;2.15;;
33505;SDS011;19843;51.040;13.782;2023-06-14T03:03:08;3.05;;;2.38;;
33505;SDS011;19843;51.040;13.782;2023-06-14T03:05:43;2.75;;;2.20;;
33505;SDS011;19843;51.040;13.782;2023-06-14T03:08:13;2.45;;;2.25;;
33505;SDS011;19843;51.040;13.782;2023-06-14T03:10:43;2.83;;;2.30;;
33505;SDS011;19843;51.040;13.782;2023-06-14T03:13:11;3.17;;;2.88;;
33505;SDS011;19843;51.040;13.782;2023-06-14T03:15:38;3.92;;;3.03;;
33505;SDS011;19843;51.040;13.782;2023-06-14T03:18:07;3.33;;;2.20;;
33505;SDS011;19843;51.040;13.782;2023-06-14T03:20:35;2.65;;;2.35;;
33505;SDS011;19843;51.040;13.782;2023-06-14T03:23:04;2.65;;;2.45;;
33505;SDS011;19843;51.040;13.782;2023-06-14T03:25:33;3.65;;;2.50;;
33505;SDS011;19843;51.040;13.782;2023-06-14T03:28:01;2.55;;;2.35;;
33505;SDS011;19843;51.040;13.782;2023-06-14T03:30:29;3.00;;;2.60;;
33505;SDS011;19843;51.040;13.782;2023-06-14T03:32:57;4.75;;;2.55;;
33505;SDS011;19843;51.040;13.782;2023-06-14T03:35:27;3.03;;;2.50;;
33505;SDS011;19843;51.040;13.782;2023-06-14T03:37:55;2.80;;;2.60;;
33505;SDS011;19843;51.040;13.782;2023-06-14T03:40:24;3.05;;;2.60;;
33505;SDS011;19843;51.040;13.782;2023-06-14T03:42:53;3.83;;;2.72;;
33505;SDS011;19843;51.040;13.782;2023-06-14T03:45:21;2.45;;;2.25;;
33505;SDS011;19843;51.040;13.782;2023-06-14T03:47:48;4.32;;;2.85;;
33505;SDS011;19843;51.040;13.782;2023-06-14T03:50:16;3.47;;;3.00;;
33505;SDS011;19843;51.040;13.782;2023-06-14T03:52:44;2.50;;;2.30;;
33505;SDS011;19843;51.040;13.782;2023-06-14T03:55:12;3.08;;;2.58;;
33505;SDS011;19843;51.040;13.782;2023-06-14T03:57:44;2.40;;;1.95;;
33505;SDS011;19843;51.040;13.782;2023-06-14T04:00:12;5.47;;;3.08;;
33505;SDS011;19843;51.040;13.782;2023-06-14T04:02:41;4.10;;;2.88;;
33505;SDS011;19843;51.040;13.782;2023-06-14T04:05:10;3.85;;;2.70;;
33505;SDS011;19843;51.040;13.782;2023-06-14T04:07:38;3.78;;;2.58;;
33505;SDS011;19843;51.040;13.782;2023-06-14T04:10:11;3.38;;;3.08;;
33505;SDS011;19843;51.040;13.782;2023-06-14T04:12:39;2.83;;;2.47;;
33505;SDS011;19843;51.040;13.782;2023-06-14T04:15:11;2.97;;;2.75;;
33505;SDS011;19843;51.040;13.782;2023-06-14T04:17:47;3.67;;;2.88;;
33505;SDS011;19843;51.040;13.782;2023-06-14T04:20:15;5.75;;;2.90;;
33505;SDS011;19843;51.040;13.782;2023-06-14T04:22:43;3.15;;;2.42;;
33505;SDS011;19843;51.040;13.782;2023-06-14T04:25:10;5.68;;;2.47;;
33505;SDS011;19843;51.040;13.782;2023-06-14T04:27:38;4.80;;;2.65;;
33505;SDS011;19843;51.040;13.782;2023-06-14T04:30:06;2.75;;;2.50;;
33505;SDS011;19843;51.040;13.782;2023-06-14T04:32:35;5.30;;;2.95;;
33505;SDS011;19843;51.040;13.782;2023-06-14T04:35:05;2.85;;;2.33;;
33505;SDS011;19843;51.040;13.782;2023-06-14T04:37:34;3.92;;;2.90;;
33505;SDS011;19843;51.040;13.782;2023-06-14T04:40:06;3.15;;;2.78;;
33505;SDS011;19843;51.040;13.782;2023-06-14T04:42:38;3.80;;;3.10;;
33505;SDS011;19843;51.040;13.782;2023-06-14T04:45:07;3.30;;;3.00;;
33505;SDS011;19843;51.040;13.782;2023-06-14T04:47:36;3.47;;;3.03;;
33505;SDS011;19843;51.040;13.782;2023-06-14T04:50:05;6.82;;;3.55;;
33505;SDS011;19843;51.040;13.782;2023-06-14T04:52:33;5.75;;;2.75;;
33505;SDS011;19843;51.040;13.782;2023-06-14T04:55:01;2.83;;;2.45;;
33505;SDS011;19843;51.040;13.782;2023-06-14T04:57:29;3.13;;;2.75;;
33505;SDS011;19843;51.040;13.782;2023-06-14T04:59:58;2.90;;;2.45;;
33505;SDS011;19843;51.040;13.782;2023-06-14T05:02:28;3.83;;;2.72;;
33505;SDS011;19843;51.040;13.782;2023-06-14T05:04:58;4.70;;;3.38;;
33505;SDS011;19843;51.040;13.782;2023-06-14T05:07:28;4.05;;;3.20;;
33505;SDS011;19843;51.040;13.782;2023-06-14T05:09:55;6.03;;;3.70;;
33505;SDS011;19843;51.040;13.782;2023-06-14T05:12:22;3.75;;;3.35;;
33505;SDS011;19843;51.040;13.782;2023-06-14T05:14:50;3.65;;;3.03;;
33505;SDS011;19843;51.040;13.782;2023-06-14T05:17:18;5.10;;;3.42;;
33505;SDS011;19843;51.040;13.782;2023-06-14T05:19:46;4.10;;;3.22;;
33505;SDS011;19843;51.040;13.782;2023-06-14T05:22:15;3.70;;;3.17;;
33505;SDS011;19843;51.040;13.782;2023-06-14T05:24:42;4.57;;;2.88;;
33505;SDS011;19843;51.040;13.782;2023-06-14T05:27:10;3.80;;;3.17;;
33505;SDS011;19843;51.040;13.782;2023-06-14T05:29:38;3.33;;;3.03;;
33505;SDS011;19843;51.040;13.782;2023-06-14T05:32:06;4.28;;;3.88;;
33505;SDS011;19843;51.040;13.782;2023-06-14T05:34:34;5.50;;;3.22;;
33505;SDS011;19843;51.040;13.782;2023-06-14T05:37:02;3.72;;;3.38;;
33505;SDS011;19843;51.040;13.782;2023-06-14T05:39:32;4.72;;;3.78;;
33505;SDS011;19843;51.040;13.782;2023-06-14T05:41:59;4.32;;;3.28;;
33505;SDS011;19843;51.040;13.782;2023-06-14T05:44:27;3.83;;;3.42;;
33505;SDS011;19843;51.040;13.782;2023-06-14T05:46:54;5.35;;;3.53;;
33505;SDS011;19843;51.040;13.782;2023-06-14T05:49:21;4.05;;;3.65;;
33505;SDS011;19843;51.040;13.782;2023-06-14T05:51:49;4.38;;;3.78;;
33505;SDS011;19843;51.040;13.782;2023-06-14T05:54:17;3.72;;;3.40;;
33505;SDS011;19843;51.040;13.782;2023-06-14T05:56:46;5.05;;;3.80;;
33505;SDS011;19843;51.040;13.782;2023-06-14T05:59:13;5.05;;;3.35;;
33505;SDS011;19843;51.040;13.782;2023-06-14T06:01:41;5.38;;;4.03;;
33505;SDS011;19843;51.040;13.782;2023-06-14T06:04:08;3.95;;;3.50;;
33505;SDS011;19843;51.040;13.782;2023-06-14T06:06:36;3.75;;;3.45;;
33505;SDS011;19843;51.040;13.782;2023-06-14T06:09:03;4.15;;;3.35;;
33505;SDS011;19843;51.040;13.782;2023-06-14T06:11:31;4.15;;;3.42;;
33505;SDS011;19843;51.040;13.782;2023-06-14T06:14:18;4.40;;;3.53;;
33505;SDS011;19843;51.040;13.782;2023-06-14T06:16:46;4.45;;;3.22;;
33505;SDS011;19843;51.040;13.782;2023-06-14T06:19:14;3.58;;;3.28;;
33505;SDS011;19843;51.040;13.782;2023-06-14T06:21:41;4.72;;;3.88;;
33505;SDS011;19843;51.040;13.782;2023-06-14T06:24:09;4.50;;;3.58;;
33505;SDS011;19843;51.040;13.782;2023-06-14T06:26:36;4.43;;;3.53;;
33505;SDS011;19843;51.040;13.782;2023-06-14T06:29:05;4.10;;;3.40;;
33505;SDS011;19843;51.040;13.782;2023-06-14T06:31:33;3.67;;;3.33;;
33505;SDS011;19843;51.040;13.782;2023-06-14T06:34:01;3.92;;;3.53;;
33505;SDS011;19843;51.040;13.782;2023-06-14T06:36:29;4.35;;;3.58;;
33505;SDS011;19843;51.040;13.782;2023-06-14T06:38:56;3.80;;;3.25;;
33505;SDS011;19843;51.040;13.782;2023-06-14T06:41:23;5.45;;;3.85;;
33505;SDS011;19843;51.040;13.782;2023-06-14T06:43:51;5.28;;;3.63;;
33505;SDS011;19843;51.040;13.782;2023-06-14T06:46:19;5.00;;;4.15;;
33505;SDS011;19843;51.040;13.782;2023-06-14T06:48:47;4.20;;;3.65;;
33505;SDS011;19843;51.040;13.782;2023-06-14T06:51:15;3.35;;;3.05;;
33505;SDS011;19843;51.040;13.782;2023-06-14T06:53:43;5.88;;;2.92;;
33505;SDS011;19843;51.040;13.782;2023-06-14T06:56:15;3.58;;;2.95;;
33505;SDS011;19843;51.040;13.782;2023-06-14T06:58:43;3.90;;;3.17;;
33505;SDS011;19843;51.040;13.782;2023-06-14T07:01:10;3.58;;;3.28;;
33505;SDS011;19843;51.040;13.782;2023-06-14T07:03:39;5.65;;;3.47;;
33505;SDS011;19843;51.040;13.782;2023-06-14T07:06:08;3.75;;;3.25;;
33505;SDS011;19843;51.040;13.782;2023-06-14T07:08:36;4.22;;;3.70;;
33505;SDS011;19843;51.040;13.782;2023-06-14T07:11:04;5.70;;;3.33;;
33505;SDS011;19843;51.040;13.782;2023-06-14T07:13:33;3.63;;;3.33;;
33505;SDS011;19843;51.040;13.782;2023-06-14T07:16:01;4.63;;;3.42;;
33505;SDS011;19843;51.040;13.782;2023-06-14T07:18:28;4.05;;;3.30;;
33505;SDS011;19843;51.040;13.782;2023-06-14T07:20:56;5.60;;;3.97;;
33505;SDS011;19843;51.040;13.782;2023-06-14T07:23:25;3.83;;;3.33;;
33505;SDS011;19843;51.040;13.782;2023-06-14T07:25:53;5.22;;;3.70;;
33505;SDS011;19843;51.040;13.782;2023-06-14T07:28:20;3.80;;;3.50;;
33505;SDS011;19843;51.040;13.782;2023-06-14T07:30:48;5.05;;;3.45;;
33505;SDS011;19843;51.040;13.782;2023-06-14T07:33:16;4.18;;;3.28;;
33505;SDS011;19843;51.040;13.782;2023-06-14T07:35:43;5.45;;;3.30;;
33505;SDS011;19843;51.040;13.782;2023-06-14T07:38:11;4.63;;;3.40;;
33505;SDS011;19843;51.040;13.782;2023-06-14T07:40:40;2.95;;;2.75;;
33505;SDS011;19843;51.040;13.782;2023-06-14T07:43:08;3.13;;;2.83;;
33505;SDS011;19843;51.040;13.782;2023-06-14T07:45:36;4.30;;;2.60;;
33505;SDS011;19843;51.040;13.782;2023-06-14T07:48:07;2.85;;;2.65;;
33505;SDS011;19843;51.040;13.782;2023-06-14T07:50:35;3.65;;;2.60;;
33505;SDS011;19843;51.040;13.782;2023-06-14T07:53:02;2.75;;;2.20;;
33505;SDS011;19843;51.040;13.782;2023-06-14T07:55:30;2.90;;;2.63;;
33505;SDS011;19843;51.040;13.782;2023-06-14T07:58:12;4.03;;;2.42;;
33505;SDS011;19843;51.040;13.782;2023-06-14T08:00:39;4.35;;;2.67;;
33505;SDS011;19843;51.040;13.782;2023-06-14T08:03:07;3.67;;;2.63;;
33505;SDS011;19843;51.040;13.782;2023-06-14T08:05:34;4.03;;;2.92;;
33505;SDS011;19843;51.040;13.782;2023-06-14T08:08:02;2.50;;;2.30;;
33505;SDS011;19843;51.040;13.782;2023-06-14T08:10:30;3.92;;;2.45;;
33505;SDS011;19843;51.040;13.782;2023-06-14T08:12:57;3.10;;;2.72;;
33505;SDS011;19843;51.040;13.782;2023-06-14T08:15:26;2.83;;;2.58;;
33505;SDS011;19843;51.040;13.782;2023-06-14T08:17:54;2.10;;;1.90;;
33505;SDS011;19843;51.040;13.782;2023-06-14T08:20:21;3.20;;;2.33;;
33505;SDS011;19843;51.040;13.782;2023-06-14T08:22:49;2.28;;;2.08;;
33505;SDS011;19843;51.040;13.782;2023-06-14T08:25:21;2.25;;;1.40;;
33505;SDS011;19843;51.040;13.782;2023-06-14T08:27:48;2.58;;;1.83;;
33505;SDS011;19843;51.040;13.782;2023-06-14T08:30:16;2.67;;;1.80;;
33505;SDS011;19843;51.040;13.782;2023-06-14T08:32:45;2.22;;;1.90;;
33505;SDS011;19843;51.040;13.782;2023-06-14T08:35:18;2.33;;;1.63;;
33505;SDS011;19843;51.040;13.782;2023-06-14T08:37:46;1.65;;;1.55;;
33505;SDS011;19843;51.040;13.782;2023-06-14T08:40:18;2.83;;;1.67;;
33505;SDS011;19843;51.040;13.782;2023-06-14T08:42:47;1.75;;;1.65;;
33505;SDS011;19843;51.040;13.782;2023-06-14T08:45:18;1.98;;;1.77;;
33505;SDS011;19843;51.040;13.782;2023-06-14T08:47:52;3.17;;;1.75;;
33505;SDS011;19843;51.040;13.782;2023-06-14T08:50:25;1.85;;;1.75;;
33505;SDS011;19843;51.040;13.782;2023-06-14T08:52:57;4.70;;;2.20;;
33505;SDS011;19843;51.040;13.782;2023-06-14T08:55:28;3.05;;;2.20;;
33505;SDS011;19843;51.040;13.782;2023-06-14T08:58:01;2.38;;;2.08;;
33505;SDS011;19843;51.040;13.782;2023-06-14T09:00:30;2.72;;;2.42;;
33505;SDS011;19843;51.040;13.782;2023-06-14T09:03:00;2.80;;;2.30;;
33505;SDS011;19843;51.040;13.782;2023-06-14T09:05:30;3.00;;;2.20;;
33505;SDS011;19843;51.040;13.782;2023-06-14T09:07:58;2.40;;;2.00;;
33505;SDS011;19843;51.040;13.782;2023-06-14T09:10:31;2.45;;;2.25;;
33505;SDS011;19843;51.040;13.782;2023-06-14T09:13:00;2.33;;;2.13;;
33505;SDS011;19843;51.040;13.782;2023-06-14T09:15:28;2.30;;;2.10;;
33505;SDS011;19843;51.040;13.782;2023-06-14T09:17:57;2.53;;;2.33;;
33505;SDS011;19843;51.040;13.782;2023-06-14T09:20:26;2.65;;;2.20;;
33505;SDS011;19843;51.040;13.782;2023-06-14T09:22:53;2.20;;;2.00;;
33505;SDS011;19843;51.040;13.782;2023-06-14T09:25:21;6.07;;;2.03;;
33505;SDS011;19843;51.040;13.782;2023-06-14T09:28:06;4.18;;;2.58;;
33505;SDS011;19843;51.040;13.782;2023-06-14T09:30:36;3.75;;;2.47;;
33505;SDS011;19843;51.040;13.782;2023-06-14T09:33:04;2.40;;;2.13;;
33505;SDS011;19843;51.040;13.782;2023-06-14T09:35:33;3.17;;;2.53;;
33505;SDS011;19843;51.040;13.782;2023-06-14T09:38:03;3.50;;;2.72;;
33505;SDS011;19843;51.040;13.782;2023-06-14T09:40:33;3.67;;;2.63;;
33505;SDS011;19843;51.040;13.782;2023-06-14T09:43:03;2.42;;;2.22;;
33505;SDS011;19843;51.040;13.782;2023-06-14T09:45:32;4.32;;;3.50;;
33505;SDS011;19843;51.040;13.782;2023-06-14T09:48:00;3.13;;;2.83;;
33505;SDS011;19843;51.040;13.782;2023-06-14T09:50:34;3.10;;;2.65;;
33505;SDS011;19843;51.040;13.782;2023-06-14T09:53:03;5.50;;;2.88;;
33505;SDS011;19843;51.040;13.782;2023-06-14T09:55:34;4.32;;;2.55;;
33505;SDS011;19843;51.040;13.782;2023-06-14T09:58:04;2.85;;;2.50;;
33505;SDS011;19843;51.040;13.782;2023-06-14T10:00:34;2.33;;;2.13;;
33505;SDS011;19843;51.040;13.782;2023-06-14T10:03:05;4.65;;;2.20;;
33505;SDS011;19843;51.040;13.782;2023-06-14T10:05:40;2.58;;;2.20;;
33505;SDS011;19843;51.040;13.782;2023-06-14T10:08:10;2.58;;;2.20;;
33505;SDS011;19843;51.040;13.782;2023-06-14T10:10:42;4.40;;;2.30;;
33505;SDS011;19843;51.040;13.782;2023-06-14T10:13:10;2.80;;;1.75;;
33505;SDS011;19843;51.040;13.782;2023-06-14T10:15:40;2.45;;;2.22;;
33505;SDS011;19843;51.040;13.782;2023-06-14T10:18:17;2.65;;;2.00;;
33505;SDS011;19843;51.040;13.782;2023-06-14T10:20:55;6.20;;;2.00;;
33505;SDS011;19843;51.040;13.782;2023-06-14T10:23:30;2.25;;;2.05;;
33505;SDS011;19843;51.040;13.782;2023-06-14T10:26:02;2.17;;;1.95;;
33505;SDS011;19843;51.040;13.782;2023-06-14T10:28:30;2.53;;;2.30;;
33505;SDS011;19843;51.040;13.782;2023-06-14T10:31:01;2.90;;;2.35;;
33505;SDS011;19843;51.040;13.782;2023-06-14T10:33:33;3.03;;;2.30;;
33505;SDS011;19843;51.040;13.782;2023-06-14T10:36:25;2.22;;;1.92;;
33505;SDS011;19843;51.040;13.782;2023-06-14T10:38:57;2.35;;;1.77;;
33505;SDS011;19843;51.040;13.782;2023-06-14T10:41:26;1.70;;;1.55;;
33505;SDS011;19843;51.040;13.782;2023-06-14T10:46:52;1.80;;;1.70;;
33505;SDS011;19843;51.040;13.782;2023-06-14T10:49:21;2.83;;;1.92;;
33505;SDS011;19843;51.040;13.782;2023-06-14T10:52:08;2.70;;;2.50;;
33505;SDS011;19843;51.040;13.782;2023-06-14T10:57:46;2.88;;;1.95;;
33505;SDS011;19843;51.040;13.782;2023-06-14T11:00:19;3.70;;;2.13;;
33505;SDS011;19843;51.040;13.782;2023-06-14T11:03:12;6.00;;;2.33;;
33505;SDS011;19843;51.040;13.782;2023-06-14T11:06:10;2.95;;;2.25;;
33505;SDS011;19843;51.040;13.782;2023-06-14T11:11:39;2.67;;;1.95;;
33505;SDS011;19843;51.040;13.782;2023-06-14T11:14:10;2.38;;;2.17;;
33505;SDS011;19843;51.040;13.782;2023-06-14T11:16:37;3.40;;;1.98;;
33505;SDS011;19843;51.040;13.782;2023-06-14T11:19:05;2.58;;;2.15;;
33505;SDS011;19843;51.040;13.782;2023-06-14T11:21:33;2.70;;;2.50;;
33505;SDS011;19843;51.040;13.782;2023-06-14T11:24:00;2.70;;;2.50;;
33505;SDS011;19843;51.040;13.782;2023-06-14T11:26:30;3.05;;;2.75;;
33505;SDS011;19843;51.040;13.782;2023-06-14T11:29:00;3.13;;;2.72;;
33505;SDS011;19843;51.040;13.782;2023-06-14T11:31:28;2.92;;;2.70;;
33505;SDS011;19843;51.040;13.782;2023-06-14T11:33:57;3.90;;;2.60;;
33505;SDS011;19843;51.040;13.782;2023-06-14T11:36:26;2.72;;;2.53;;
33505;SDS011;19843;51.040;13.782;2023-06-14T11:38:59;4.55;;;3.10;;
33505;SDS011;19843;51.040;13.782;2023-06-14T11:41:33;2.92;;;2.60;;
33505;SDS011;19843;51.040;13.782;2023-06-14T11:44:04;2.75;;;2.40;;
33505;SDS011;19843;51.040;13.782;2023-06-14T11:46:33;2.78;;;2.58;;
33505;SDS011;19843;51.040;13.782;2023-06-14T11:49:02;3.10;;;2.80;;
33505;SDS011;19843;51.040;13.782;2023-06-14T11:51:30;3.53;;;2.97;;
33505;SDS011;19843;51.040;13.782;2023-06-14T11:53:59;4.15;;;3.00;;
33505;SDS011;19843;51.040;13.782;2023-06-14T11:56:27;3.15;;;2.85;;
33505;SDS011;19843;51.040;13.782;2023-06-14T11:58:55;3.00;;;2.55;;
33505;SDS011;19843;51.040;13.782;2023-06-14T12:01:23;2.53;;;2.33;;
33505;SDS011;19843;51.040;13.782;2023-06-14T12:03:52;2.85;;;2.65;;
33505;SDS011;19843;51.040;13.782;2023-06-14T12:06:27;5.63;;;2.67;;
33505;SDS011;19843;51.040;13.782;2023-06-14T12:08:59;3.50;;;3.00;;
33505;SDS011;19843;51.040;13.782;2023-06-14T12:11:31;2.83;;;2.63;;
33505;SDS011;19843;51.040;13.782;2023-06-14T12:14:02;3.30;;;3.00;;
33505;SDS011;19843;51.040;13.782;2023-06-14T12:16:31;3.17;;;2.40;;
33505;SDS011;19843;51.040;13.782;2023-06-14T12:19:12;3.78;;;2.65;;
33505;SDS011;19843;51.040;13.782;2023-06-14T12:21:41;3.78;;;2.60;;
33505;SDS011;19843;51.040;13.782;2023-06-14T12:24:11;4.38;;;2.35;;
33505;SDS011;19843;51.040;13.782;2023-06-14T12:26:40;4.00;;;2.53;;
33505;SDS011;19843;51.040;13.782;2023-06-14T12:29:09;4.63;;;2.90;;
33505;SDS011;19843;51.040;13.782;2023-06-14T12:31:39;3.85;;;3.10;;
33505;SDS011;19843;51.040;13.782;2023-06-14T12:34:07;4.07;;;2.85;;
33505;SDS011;19843;51.040;13.782;2023-06-14T12:36:34;2.80;;;2.60;;
33505;SDS011;19843;51.040;13.782;2023-06-14T12:39:06;3.53;;;3.17;;
33505;SDS011;19843;51.040;13.782;2023-06-14T12:41:34;4.68;;;3.10;;
33505;SDS011;19843;51.040;13.782;2023-06-14T12:44:03;2.90;;;2.42;;
33505;SDS011;19843;51.040;13.782;2023-06-14T12:46:32;3.25;;;2.95;;
33505;SDS011;19843;51.040;13.782;2023-06-14T12:49:01;4.10;;;2.78;;
33505;SDS011;19843;51.040;13.782;2023-06-14T12:51:29;2.42;;;2.22;;
33505;SDS011;19843;51.040;13.782;2023-06-14T12:53:56;2.88;;;2.35;;
33505;SDS011;19843;51.040;13.782;2023-06-14T12:56:24;3.05;;;2.70;;
33505;SDS011;19843;51.040;13.782;2023-06-14T12:58:52;3.67;;;2.90;;
33505;SDS011;19843;51.040;13.782;2023-06-14T13:01:20;2.67;;;2.45;;
33505;SDS011;19843;51.040;13.782;2023-06-14T13:03:49;3.90;;;2.75;;
33505;SDS011;19843;51.040;13.782;2023-06-14T13:06:17;2.60;;;2.35;;
33505;SDS011;19843;51.040;13.782;2023-06-14T13:08:45;3.60;;;2.38;;
33505;SDS011;19843;51.040;13.782;2023-06-14T13:11:12;3.08;;;2.78;;
33505;SDS011;19843;51.040;13.782;2023-06-14T13:13:40;3.33;;;2.80;;
33505;SDS011;19843;51.040;13.782;2023-06-14T13:16:08;3.95;;;2.90;;
33505;SDS011;19843;51.040;13.782;2023-06-14T13:18:37;5.85;;;2.50;;
33505;SDS011;19843;51.040;13.782;2023-06-14T13:21:05;2.58;;;2.38;;
33505;SDS011;19843;51.040;13.782;2023-06-14T13:23:33;3.15;;;2.60;;
33505;SDS011;19843;51.040;13.782;2023-06-14T13:26:01;3.40;;;2.20;;
33505;SDS011;19843;51.040;13.782;2023-06-14T13:28:29;2.90;;;2.28;;
33505;SDS011;19843;51.040;13.782;2023-06-14T13:30:57;2.75;;;2.55;;
33505;SDS011;19843;51.040;13.782;2023-06-14T13:33:25;3.00;;;2.80;;
33505;SDS011;19843;51.040;13.782;2023-06-14T13:35:52;3.97;;;2.90;;
33505;SDS011;19843;51.040;13.782;2023-06-14T13:38:21;4.22;;;3.10;;
33505;SDS011;19843;51.040;13.782;2023-06-14T13:40:49;7.70;;;3.30;;
33505;SDS011;19843;51.040;13.782;2023-06-14T13:43:16;2.90;;;2.67;;
33505;SDS011;19843;51.040;13.782;2023-06-14T13:45:44;3.33;;;2.90;;
33505;SDS011;19843;51.040;13.782;2023-06-14T13:48:16;3.60;;;3.30;;
33505;SDS011;19843;51.040;13.782;2023-06-14T13:50:44;3.30;;;3.00;;
33505;SDS011;19843;51.040;13.782;2023-06-14T13:53:12;3.35;;;2.92;;
33505;SDS011;19843;51.040;13.782;2023-06-14T13:55:41;2.70;;;2.35;;
33505;SDS011;19843;51.040;13.782;2023-06-14T13:58:09;3.25;;;2.90;;
33505;SDS011;19843;51.040;13.782;2023-06-14T14:00:36;4.70;;;2.90;;
33505;SDS011;19843;51.040;13.782;2023-06-14T14:03:11;3.33;;;2.53;;
33505;SDS011;19843;51.040;13.782;2023-06-14T14:05:39;2.60;;;2.40;;
33505;SDS011;19843;51.040;13.782;2023-06-14T14:08:06;4.45;;;2.33;;
33505;SDS011;19843;51.040;13.782;2023-06-14T14:10:34;2.28;;;1.92;;
33505;SDS011;19843;51.040;13.782;2023-06-14T14:13:03;3.13;;;2.45;;
33505;SDS011;19843;51.040;13.782;2023-06-14T14:15:30;2.90;;;2.15;;
33505;SDS011;19843;51.040;13.782;2023-06-14T14:18:01;1.77;;;1.67;;
33505;SDS011;19843;51.040;13.782;2023-06-14T14:20:29;2.72;;;2.45;;
33505;SDS011;19843;51.040;13.782;2023-06-14T14:22:57;3.33;;;2.60;;
33505;SDS011;19843;51.040;13.782;2023-06-14T14:25:24;2.58;;;2.38;;
33505;SDS011;19843;51.040;13.782;2023-06-14T14:27:52;2.92;;;2.17;;
33505;SDS011;19843;51.040;13.782;2023-06-14T14:30:21;2.30;;;2.10;;
33505;SDS011;19843;51.040;13.782;2023-06-14T14:32:49;2.45;;;2.22;;
33505;SDS011;19843;51.040;13.782;2023-06-14T14:35:17;2.25;;;2.05;;
33505;SDS011;19843;51.040;13.782;2023-06-14T14:37:45;2.20;;;2.00;;
33505;SDS011;19843;51.040;13.782;2023-06-14T14:40:12;2.40;;;2.20;;
33505;SDS011;19843;51.040;13.782;2023-06-14T14:42:41;2.40;;;2.00;;
33505;SDS011;19843;51.040;13.782;2023-06-14T14:45:09;2.05;;;1.90;;
33505;SDS011;19843;51.040;13.782;2023-06-14T14:47:38;2.35;;;2.15;;
33505;SDS011;19843;51.040;13.782;2023-06-14T14:50:06;1.88;;;1.77;;
33505;SDS011;19843;51.040;13.782;2023-06-14T14:52:34;2.95;;;2.38;;
33505;SDS011;19843;51.040;13.782;2023-06-14T14:55:02;2.78;;;2.40;;